North Collins, New York
Current Conditions -  °F | °C
As of 5:13 AM on Tuesday 27 Jan 2015 (Local Time) from KDKK Reporting Station
Light Snow Light Snow  
Wind Chill:   Ceiling: 1500
Heat Index: 17°   Visibility: 5mi
Dew Point: 13°   Wind: 12mph
Humidity: 84%   Direction: 40°NE
Pressure: 29.93"   Gusts: NA
Location:  42.6°N, 78.94°W
Report Text: KDKK 271013Z AUTO 04010KT 5SM -SN BR BKN015 OVC022 M08/M11 A2993 RMK AO2 SNB0958 P0000 T10831106
Loading
Personal Weather Stations






























Interactive Weather Map New forecast layout! Learn more

10-Day Weather Forecast

Advertisements
Track Severe Weather on mobile